Flight Track Log - Related Links

Times and Time Zones

All times are in EDT time to prevent confusion due to time zone crossing. See the SWA2894 flight status page for this flight to view local times or setup timezone preferences in your user account.

Time Position Orientation Groundspeed Altitude Reporting Facility
EDT Latitude Longitude Course Direction KTS MPH feet Rate Location/Type
Fri 12:10:16 PM 37.7500 -122.2833 150° Southeast 165 190 2,300  Level Northern Cal TRACON
Fri 12:11:16 PM 37.7500 -122.3500 270° West 215 247 5,200 3,000 Climbing Northern Cal TRACON
Fri 12:12:16 PM 37.7167 -122.4167 238° Southwest 247 284 8,300 2,350 Climbing Northern Cal TRACON
Fri 12:13:16 PM 37.6667 -122.4667 218° Southwest 294 338 9,900 1,909 Climbing Northern Cal TRACON
Fri 12:14:06 PM 37.5942 -122.4781 187° South 318 366 11,800 2,973 Climbing Oakland Center
Fri 12:15:00 PM 37.3140 -122.3504 150° Southeast  Level FlightAware Approximate
Fri 12:15:07 PM 37.5058 -122.4222 153° Southeast 364 419 15,400  Level Oakland Center
Fri 12:16:09 PM 37.4317 -122.3194 132° Southeast 390 449 18,300 2,976 Climbing Oakland Center
Fri 12:17:10 PM 37.3544 -122.2150 133° Southeast 406 467 21,500 2,683 Climbing Oakland Center
Fri 12:18:12 PM 37.2728 -122.1058 133° Southeast 424 488 23,800 2,488 Climbing Oakland Center
Fri 12:19:13 PM 37.1883 -121.9911 133° Southeast 445 512 26,600 2,634 Climbing Oakland Center
Fri 12:20:15 PM 37.0853 -121.8542 133° Southeast 449 517 29,200 2,098 Climbing Oakland Center
Fri 12:21:16 PM 36.9967 -121.7358 133° Southeast 462 532 30,900 1,707 Climbing Oakland Center
Fri 12:22:18 PM 36.9050 -121.6150 133° Southeast 475 547 32,700 1,805 Climbing Oakland Center
Fri 12:23:19 PM 36.8119 -121.4908 133° Southeast 480 552 34,600 1,707 Climbing Oakland Center
Fri 12:24:21 PM 36.7208 -121.3681 133° Southeast 483 556 36,200 1,171 Climbing Oakland Center
Fri 12:25:22 PM 36.6283 -121.2483 134° Southeast 480 552 37,000 390 Climbing Oakland Center
Fri 12:26:24 PM 36.5364 -121.1283 134° Southeast 479 551 37,000  Level Oakland Center
Fri 12:27:25 PM 36.4444 -121.0069 133° Southeast 481 554 37,000  Level Oakland Center
Fri 12:28:27 PM 36.3519 -120.8867 134° Southeast 482 555 37,000  Level Oakland Center
Fri 12:29:28 PM 36.2422 -120.7425 133° Southeast 481 554 37,000  Level Oakland Center
Fri 12:30:30 PM 36.1500 -120.6219 133° Southeast 481 554 37,000  Level Oakland Center
Fri 12:31:32 PM 36.0564 -120.5028 134° Southeast 482 555 37,000  Level Oakland Center
Fri 12:32:33 PM 35.9642 -120.3822 133° Southeast 482 555 37,000  Level Oakland Center
Fri 12:33:35 PM 35.8703 -120.2631 134° Southeast 481 554 37,000  Level Oakland Center
Fri 12:34:36 PM 35.7767 -120.1431 134° Southeast 481 554 37,000  Level Oakland Center
Fri 12:35:38 PM 35.6828 -120.0231 134° Southeast 483 556 37,000  Level Oakland Center
Fri 12:36:39 PM 35.5792 -119.9194 141° Southeast 477 549 37,000  Level Oakland Center
Fri 12:37:41 PM 35.4708 -119.8264 145° Southeast 472 543 37,000  Level Oakland Center
Fri 12:38:42 PM 35.3625 -119.7322 145° Southeast 474 545 37,000 -390 Level Oakland Center
Fri 12:39:44 PM 35.2314 -119.6200 145° Southeast 476 548 36,200 -1,512 Descending Oakland Center
Fri 12:40:45 PM 35.1233 -119.5267 145° Southeast 474 545 33,900 -2,585 Descending Oakland Center
Fri 12:41:47 PM 35.0175 -119.4381 146° Southeast 464 534 30,900 -2,683 Descending Oakland Center
Fri 12:42:48 PM 34.9119 -119.3481 145° Southeast 464 534 28,400 -2,341 Descending Oakland Center
Fri 12:43:50 PM 34.8106 -119.2611 145° Southeast 453 521 26,100 -2,129 Descending Oakland Center
Fri 12:44:52 PM 34.7136 -119.1789 145° Southeast 434 499 24,000 -2,029 Descending Oakland Center
Fri 12:46:06 PM 34.5939 -119.0817 146° Southeast 421 484 21,500 -2,029 Descending Los Angeles Center
Fri 12:47:08 PM 34.5039 -119.0058 145° Southeast 392 451 19,400 -1,984 Descending Los Angeles Center
Fri 12:48:10 PM 34.4150 -118.9317 145° Southeast 387 445 17,400 -2,177 Descending Los Angeles Center
Fri 12:49:12 PM 34.3067 -118.8622 152° Southeast 369 425 14,900 -2,177 Descending Los Angeles Center
Fri 12:50:14 PM 34.2111 -118.8286 164° South 358 412 12,900 -1,762 Descending Los Angeles Center
Fri 12:51:18 PM 34.1183 -118.7950 163° South 347 399 11,200 -1,392 Descending Los Angeles Center
Fri 12:52:19 PM 34.0586 -118.7086 130° Southeast 324 373 10,000 -878 Descending Los Angeles Center
Fri 12:53:21 PM 34.0392 -118.6072 103° East 313 360 9,400 -1,016 Descending Los Angeles Center
Fri 12:54:23 PM 34.0186 -118.5011 103° East 303 349 7,900 -1,452 Descending Los Angeles Center
Fri 12:55:25 PM 34.0147 -118.4050 93° East 287 330 6,400 -1,355 Descending Los Angeles Center
Fri 12:56:27 PM 34.0222 -118.3106 85° East 282 325 5,100 -823 Descending Los Angeles Center
Fri 12:57:29 PM 34.0264 -118.2364 86° East 232 267 4,700 -871 Descending Los Angeles Center
Fri 12:58:31 PM 33.9811 -118.2417 186° South 203 234 3,300 -1,392 Descending Los Angeles Center
Fri 12:59:34 PM 33.9617 -118.2972 247° West 190 219 1,800 -1,152 Descending Los Angeles Center
Fri 01:00:36 PM 33.9578 -118.3564 265° West 163 188 900 -774 Descending Los Angeles Center
Fri 01:01:38 PM 33.9533 -118.4028 263° West 148 170 200 -677 Descending Los Angeles Center
Fri 01:03:00 PM 33.9425 -118.4081 228° Southwest  Level Estimated
Fri 01:10:00 PM 33.9425 -118.4081 228° Southwest  Level Estimated

Login

Don't have an account? Register now (free) for customized features, flight alerts, and more!